Time;durP1;ratioP1;P1;durP2;ratioP2;P2;SDS_P1;SDS_P2;PMS_P1;PMS_P2;Temp;Humidity;BMP_temperature;BMP_pressure;BME280_temperature;BME280_humidity;BME280_pressure;Samples;Min_cycle;Max_cycle;Signal;HPM_P1;HPM_P2
2022/05/07 00:01:08;;;;;;;18.40;8.82;;;;;;;;;;6295494;22;20007;-46
2022/05/07 00:03:33;;;;;;;20.73;9.13;;;;;;;;;;6296891;22;20063;-46
2022/05/07 00:05:58;;;;;;;20.13;9.55;;;;;;;;;;6294905;22;20019;-47
2022/05/07 00:08:23;;;;;;;21.73;9.13;;;;;;;;;;6296742;22;20011;-47
2022/05/07 00:10:49;;;;;;;17.65;7.85;;;;;;;;;;6295997;22;20022;-47
2022/05/07 00:13:14;;;;;;;18.38;9.63;;;;;;;;;;6296885;22;20106;-45
2022/05/07 00:15:39;;;;;;;22.17;9.13;;;;;;;;;;6294223;22;20015;-46
2022/05/07 00:18:06;;;;;;;16.98;9.10;;;;;;;;;;6297799;22;20015;-48
2022/05/07 00:20:32;;;;;;;23.15;10.73;;;;;;;;;;6295385;22;20507;-46
2022/05/07 00:22:58;;;;;;;20.40;8.30;;;;;;;;;;6297327;22;20037;-48
2022/05/07 00:25:23;;;;;;;16.38;8.70;;;;;;;;;;6294611;22;20019;-46
2022/05/07 00:27:48;;;;;;;13.10;8.55;;;;;;;;;;6298209;22;20011;-46
2022/05/07 00:30:14;;;;;;;20.33;8.88;;;;;;;;;;6294039;22;20061;-46
2022/05/07 00:32:39;;;;;;;17.83;9.15;;;;;;;;;;6296226;22;20023;-45
2022/05/07 00:35:05;;;;;;;18.88;9.35;;;;;;;;;;6295714;22;20014;-46
2022/05/07 00:37:30;;;;;;;20.48;10.50;;;;;;;;;;6296323;22;20004;-48
2022/05/07 00:39:56;;;;;;;17.05;9.52;;;;;;;;;;6295733;22;20016;-45
2022/05/07 00:42:21;;;;;;;24.90;11.68;;;;;;;;;;6296880;22;20015;-48
2022/05/07 00:44:46;;;;;;;17.02;9.55;;;;;;;;;;6295662;22;20035;-46
2022/05/07 00:47:15;;;;;;;16.15;9.00;;;;;;;;;;6297516;22;20012;-47
2022/05/07 00:49:41;;;;;;;21.65;10.15;;;;;;;;;;6296053;22;20000;-50
2022/05/07 00:52:07;;;;;;;18.95;10.23;;;;;;;;;;6298136;22;20038;-47
2022/05/07 00:54:32;;;;;;;22.80;10.52;;;;;;;;;;6295535;22;20531;-46
2022/05/07 00:56:57;;;;;;;17.00;10.65;;;;;;;;;;6298371;22;20015;-45
2022/05/07 00:59:23;;;;;;;21.55;9.85;;;;;;;;;;6294524;22;20017;-45
2022/05/07 01:01:48;;;;;;;20.20;10.10;;;;;;;;;;6297214;22;20022;-44
2022/05/07 01:04:13;;;;;;;19.45;9.57;;;;;;;;;;6293609;22;20394;-46
2022/05/07 01:06:39;;;;;;;21.88;11.35;;;;;;;;;;6298050;22;20047;-45
2022/05/07 01:09:04;;;;;;;19.92;10.57;;;;;;;;;;6294916;22;20012;-47
2022/05/07 01:11:31;;;;;;;20.55;11.73;;;;;;;;;;6297501;22;20011;-47
2022/05/07 01:13:57;;;;;;;19.45;10.68;;;;;;;;;;6294324;22;20064;-49
2022/05/07 01:16:23;;;;;;;19.30;11.75;;;;;;;;;;6295044;22;20020;-46
2022/05/07 01:18:48;;;;;;;26.02;11.95;;;;;;;;;;6296616;22;20094;-46
2022/05/07 01:21:15;;;;;;;18.05;10.82;;;;;;;;;;6296891;22;20011;-47
2022/05/07 01:23:41;;;;;;;23.27;11.93;;;;;;;;;;6297773;22;20011;-46
2022/05/07 01:26:06;;;;;;;22.90;12.18;;;;;;;;;;6300129;22;20098;-45
2022/05/07 01:28:32;;;;;;;23.35;12.00;;;;;;;;;;6297227;22;20011;-47
2022/05/07 01:30:57;;;;;;;19.67;12.15;;;;;;;;;;6299726;22;20345;-46
2022/05/07 01:33:22;;;;;;;28.00;12.15;;;;;;;;;;6295887;22;20294;-45
2022/05/07 01:35:48;;;;;;;26.33;13.32;;;;;;;;;;6300265;22;20037;-49
2022/05/07 01:38:13;;;;;;;25.20;12.75;;;;;;;;;;6297023;22;20026;-46
2022/05/07 01:40:38;;;;;;;22.58;12.85;;;;;;;;;;6298857;22;20011;-44
2022/05/07 01:43:03;;;;;;;24.75;12.88;;;;;;;;;;6296847;22;20117;-47
2022/05/07 01:45:29;;;;;;;23.67;13.30;;;;;;;;;;6297695;22;20015;-45
2022/05/07 01:48:09;;;;;;;20.58;12.55;;;;;;;;;;6297393;22;20039;-45
2022/05/07 01:50:35;;;;;;;24.27;12.35;;;;;;;;;;6271275;22;20668;-50
2022/05/07 01:53:01;;;;;;;27.80;14.07;;;;;;;;;;6297577;22;20034;-47
2022/05/07 01:55:26;;;;;;;27.80;12.70;;;;;;;;;;6298296;22;20007;-47
2022/05/07 01:57:52;;;;;;;27.40;12.80;;;;;;;;;;6297239;22;20015;-46
2022/05/07 02:00:17;;;;;;;28.13;13.85;;;;;;;;;;6297444;22;20015;-46
2022/05/07 02:02:43;;;;;;;23.38;12.75;;;;;;;;;;6296964;22;20019;-47
2022/05/07 02:05:08;;;;;;;32.72;13.13;;;;;;;;;;6298313;22;20018;-46
2022/05/07 02:07:34;;;;;;;24.05;11.88;;;;;;;;;;6296123;22;20072;-46
2022/05/07 02:09:59;;;;;;;31.35;12.60;;;;;;;;;;6297753;22;20022;-45
2022/05/07 02:12:24;;;;;;;23.60;12.05;;;;;;;;;;6292405;22;20027;-45
2022/05/07 02:14:50;;;;;;;22.98;12.40;;;;;;;;;;6300034;22;20389;-47
2022/05/07 02:17:15;;;;;;;25.48;10.38;;;;;;;;;;6290340;22;20035;-46
2022/05/07 02:19:40;;;;;;;22.27;10.50;;;;;;;;;;6297315;22;20086;-47
2022/05/07 02:22:06;;;;;;;21.10;10.10;;;;;;;;;;6298069;22;20039;-44
2022/05/07 02:24:31;;;;;;;26.88;11.45;;;;;;;;;;6295625;22;20011;-45
2022/05/07 02:26:56;;;;;;;16.67;8.95;;;;;;;;;;6299280;22;20015;-46
2022/05/07 02:29:21;;;;;;;20.65;9.45;;;;;;;;;;6294647;22;20034;-45
2022/05/07 02:32:06;;;;;;;17.42;9.65;;;;;;;;;;6297574;22;20011;-47
2022/05/07 02:34:31;;;;;;;17.55;9.30;;;;;;;;;;6296937;22;20007;-46
2022/05/07 02:36:57;;;;;;;14.93;9.10;;;;;;;;;;6298135;22;20022;-45
2022/05/07 02:39:22;;;;;;;22.35;9.32;;;;;;;;;;6295037;22;20195;-46
2022/05/07 02:44:31;;;;;;;21.13;9.02;;;;;;;;;;6296091;22;20425;-47
2022/05/07 02:46:57;;;;;;;16.95;8.85;;;;;;;;;;6296369;22;20289;-46
2022/05/07 02:49:22;;;;;;;18.80;8.77;;;;;;;;;;6268591;22;20004;-47
2022/05/07 02:51:47;;;;;;;16.75;7.35;;;;;;;;;;6298196;22;20026;-46
2022/05/07 02:54:13;;;;;;;11.73;6.95;;;;;;;;;;6296654;22;20024;-47
2022/05/07 02:56:38;;;;;;;14.88;7.15;;;;;;;;;;6296689;22;20062;-46
2022/05/07 02:59:03;;;;;;;11.07;6.35;;;;;;;;;;6297492;22;20020;-49
2022/05/07 03:01:28;;;;;;;9.27;6.00;;;;;;;;;;6295805;22;20022;-46
2022/05/07 03:03:54;;;;;;;8.60;5.35;;;;;;;;;;6298209;22;20026;-46
2022/05/07 03:06:19;;;;;;;8.80;5.38;;;;;;;;;;6296297;22;20022;-46
2022/05/07 03:08:44;;;;;;;13.18;4.50;;;;;;;;;;6270268;22;20090;-44
2022/05/07 03:11:11;;;;;;;7.50;4.20;;;;;;;;;;6296917;22;20012;-51
2022/05/07 03:13:36;;;;;;;7.63;3.83;;;;;;;;;;6297642;22;20500;-45
2022/05/07 03:16:01;;;;;;;10.60;3.67;;;;;;;;;;6297473;22;20465;-45
2022/05/07 03:18:28;;;;;;;8.20;3.40;;;;;;;;;;6296168;22;20034;-45
2022/05/07 03:20:54;;;;;;;9.50;3.88;;;;;;;;;;6298405;22;20114;-46
2022/05/07 03:23:19;;;;;;;6.93;3.70;;;;;;;;;;6296844;22;20014;-46
2022/05/07 03:25:45;;;;;;;7.75;3.17;;;;;;;;;;6297092;22;20019;-47
2022/05/07 03:28:11;;;;;;;5.82;3.72;;;;;;;;;;6296961;22;20031;-48
2022/05/07 03:30:36;;;;;;;8.82;3.50;;;;;;;;;;6296453;22;20033;-46
2022/05/07 03:33:01;;;;;;;4.63;2.83;;;;;;;;;;6298518;22;20023;-45
2022/05/07 03:35:28;;;;;;;11.10;3.88;;;;;;;;;;6288340;22;20770;-45
2022/05/07 03:37:53;;;;;;;8.93;3.40;;;;;;;;;;6299165;22;20019;-47
2022/05/07 03:40:19;;;;;;;5.50;3.55;;;;;;;;;;6296074;22;20046;-47
2022/05/07 03:42:45;;;;;;;4.95;3.03;;;;;;;;;;6296860;22;20058;-45
2022/05/07 03:45:10;;;;;;;4.78;2.72;;;;;;;;;;6296427;22;20026;-46
2022/05/07 03:47:35;;;;;;;10.63;3.00;;;;;;;;;;6298588;22;20007;-47
2022/05/07 03:50:01;;;;;;;6.07;2.95;;;;;;;;;;6295746;22;20007;-50
2022/05/07 03:55:09;;;;;;;5.70;3.03;;;;;;;;;;6295475;22;20543;-45
2022/05/07 03:57:35;;;;;;;5.65;2.70;;;;;;;;;;6298288;22;20007;-45
2022/05/07 04:00:00;;;;;;;5.63;2.67;;;;;;;;;;6297186;22;20023;-47
2022/05/07 04:02:26;;;;;;;5.35;3.30;;;;;;;;;;6296539;22;20067;-45
2022/05/07 04:04:51;;;;;;;4.93;3.30;;;;;;;;;;6296425;22;20053;-47
2022/05/07 04:07:16;;;;;;;4.70;3.08;;;;;;;;;;6296925;22;20038;-46
2022/05/07 04:09:42;;;;;;;4.72;3.08;;;;;;;;;;6297571;22;20018;-48
2022/05/07 04:12:08;;;;;;;5.28;3.35;;;;;;;;;;6296318;22;20019;-48
2022/05/07 04:14:33;;;;;;;7.05;4.00;;;;;;;;;;6296292;22;20011;-48
2022/05/07 04:16:58;;;;;;;5.80;3.65;;;;;;;;;;6297642;22;20020;-45
2022/05/07 04:19:23;;;;;;;7.57;4.88;;;;;;;;;;6295132;22;20023;-46
2022/05/07 04:21:49;;;;;;;10.95;4.95;;;;;;;;;;6296998;22;20015;-47
2022/05/07 04:24:14;;;;;;;7.75;4.43;;;;;;;;;;6295525;22;20018;-47
2022/05/07 04:26:39;;;;;;;10.23;5.75;;;;;;;;;;6296558;22;20011;-46
2022/05/07 04:29:04;;;;;;;10.00;5.78;;;;;;;;;;6295541;22;20027;-44
2022/05/07 04:31:30;;;;;;;10.23;5.97;;;;;;;;;;6296253;22;20032;-45
2022/05/07 04:33:55;;;;;;;11.25;5.72;;;;;;;;;;6295704;22;20015;-44
2022/05/07 04:36:20;;;;;;;13.43;7.25;;;;;;;;;;6295867;22;20015;-44
2022/05/07 04:38:46;;;;;;;12.68;6.85;;;;;;;;;;6268301;22;20030;-46
2022/05/07 04:41:11;;;;;;;12.80;8.32;;;;;;;;;;6296704;22;20014;-45
2022/05/07 04:43:36;;;;;;;17.75;7.78;;;;;;;;;;6295819;22;20026;-46
2022/05/07 04:46:01;;;;;;;16.88;7.93;;;;;;;;;;6298235;22;20031;-47
2022/05/07 04:48:27;;;;;;;23.10;10.43;;;;;;;;;;6295136;22;20019;-46
2022/05/07 04:50:52;;;;;;;15.15;9.05;;;;;;;;;;6298792;22;20495;-45
2022/05/07 04:53:17;;;;;;;21.38;9.68;;;;;;;;;;6295215;22;20015;-48
2022/05/07 04:55:43;;;;;;;19.67;10.40;;;;;;;;;;6297282;22;20699;-45
2022/05/07 04:58:08;;;;;;;17.90;11.00;;;;;;;;;;6297746;22;20106;-46
2022/05/07 05:00:33;;;;;;;19.27;10.98;;;;;;;;;;6299385;22;20011;-44
2022/05/07 05:02:59;;;;;;;19.50;11.35;;;;;;;;;;6298821;22;20094;-45
2022/05/07 05:05:27;;;;;;;21.08;11.73;;;;;;;;;;6297758;22;20099;-45
2022/05/07 05:07:52;;;;;;;24.85;12.93;;;;;;;;;;6298592;22;20164;-45
2022/05/07 05:10:18;;;;;;;25.77;13.15;;;;;;;;;;6298235;22;20046;-45
2022/05/07 05:12:43;;;;;;;31.92;16.42;;;;;;;;;;6297729;22;20015;-48
2022/05/07 05:15:09;;;;;;;29.33;14.23;;;;;;;;;;6299313;22;20298;-49
2022/05/07 05:17:34;;;;;;;28.80;13.75;;;;;;;;;;6297101;22;20031;-45
2022/05/07 05:20:01;;;;;;;29.70;14.68;;;;;;;;;;6300521;22;20013;-45
2022/05/07 05:22:26;;;;;;;34.78;14.70;;;;;;;;;;6296997;22;20015;-47
2022/05/07 05:24:51;;;;;;;30.67;15.90;;;;;;;;;;6299270;22;20015;-48
2022/05/07 05:27:17;;;;;;;29.77;15.60;;;;;;;;;;6295732;22;20064;-46
2022/05/07 05:29:42;;;;;;;32.63;16.95;;;;;;;;;;6299401;22;20074;-47
2022/05/07 05:32:08;;;;;;;28.73;15.07;;;;;;;;;;6297580;22;20007;-46
2022/05/07 05:34:33;;;;;;;31.00;15.95;;;;;;;;;;6271499;22;20007;-47
2022/05/07 05:36:58;;;;;;;29.35;15.73;;;;;;;;;;6298058;22;20070;-45
2022/05/07 05:39:24;;;;;;;32.13;16.77;;;;;;;;;;6298158;22;20066;-45
2022/05/07 05:41:49;;;;;;;31.13;15.77;;;;;;;;;;6298249;22;20011;-45
2022/05/07 05:44:14;;;;;;;36.58;15.65;;;;;;;;;;6299265;22;20327;-47
2022/05/07 05:46:39;;;;;;;32.97;16.65;;;;;;;;;;6297198;22;20007;-45
2022/05/07 05:49:05;;;;;;;28.65;16.50;;;;;;;;;;6299807;22;20007;-48
2022/05/07 05:51:30;;;;;;;30.73;16.00;;;;;;;;;;6296743;22;20007;-45
2022/05/07 05:53:55;;;;;;;32.38;16.80;;;;;;;;;;6271913;22;20012;-46
2022/05/07 05:56:21;;;;;;;31.38;15.70;;;;;;;;;;6295225;22;20344;-46
2022/05/07 05:58:46;;;;;;;35.00;18.08;;;;;;;;;;6299911;22;20012;-45
2022/05/07 06:01:11;;;;;;;42.90;15.93;;;;;;;;;;6296093;22;20019;-45
2022/05/07 06:03:37;;;;;;;49.30;17.85;;;;;;;;;;6299416;22;20451;-50
2022/05/07 06:06:02;;;;;;;27.02;16.67;;;;;;;;;;6297109;22;20011;-48
2022/05/07 06:08:27;;;;;;;31.65;14.85;;;;;;;;;;6298315;22;20046;-46
2022/05/07 06:10:54;;;;;;;32.17;16.10;;;;;;;;;;6298437;22;20018;-48
2022/05/07 06:13:20;;;;;;;30.38;15.45;;;;;;;;;;6296590;22;20015;-46
2022/05/07 06:15:49;;;;;;;32.00;16.00;;;;;;;;;;6295867;22;20027;-46
2022/05/07 06:18:14;;;;;;;24.17;13.65;;;;;;;;;;6298165;22;20012;-46
2022/05/07 06:20:39;;;;;;;30.33;16.08;;;;;;;;;;6297241;22;20011;-47
2022/05/07 06:23:04;;;;;;;27.25;14.57;;;;;;;;;;6298608;22;20011;-48
2022/05/07 06:28:13;;;;;;;23.58;13.88;;;;;;;;;;6298528;22;20075;-45
2022/05/07 06:30:39;;;;;;;25.60;13.68;;;;;;;;;;6296070;22;20015;-47
2022/05/07 06:33:04;;;;;;;26.75;13.75;;;;;;;;;;6298571;22;20053;-47
2022/05/07 06:35:29;;;;;;;29.73;15.55;;;;;;;;;;6295313;22;20027;-47
2022/05/07 06:37:55;;;;;;;32.63;14.10;;;;;;;;;;6299525;22;20011;-46
2022/05/07 06:40:20;;;;;;;23.98;13.45;;;;;;;;;;6295889;22;20068;-48
2022/05/07 06:42:45;;;;;;;21.60;13.20;;;;;;;;;;6297392;22;20083;-47
2022/05/07 06:45:11;;;;;;;21.42;11.88;;;;;;;;;;6294376;22;20423;-45
2022/05/07 06:47:36;;;;;;;21.83;13.00;;;;;;;;;;6294389;22;20017;-45
2022/05/07 06:50:02;;;;;;;25.65;12.25;;;;;;;;;;6286476;22;20019;-46
2022/05/07 06:52:28;;;;;;;21.20;11.30;;;;;;;;;;6294057;22;20627;-47
2022/05/07 06:54:53;;;;;;;20.60;10.80;;;;;;;;;;6297522;22;20489;-47
2022/05/07 06:57:19;;;;;;;16.98;11.63;;;;;;;;;;6296054;22;20011;-45
2022/05/07 06:59:44;;;;;;;19.80;10.23;;;;;;;;;;6296585;22;20046;-48
2022/05/07 07:02:09;;;;;;;18.65;10.98;;;;;;;;;;6297784;22;20015;-51
2022/05/07 07:04:35;;;;;;;19.40;11.43;;;;;;;;;;6296278;22;20018;-44
2022/05/07 07:07:00;;;;;;;20.27;11.10;;;;;;;;;;6297814;22;20512;-50
2022/05/07 07:09:25;;;;;;;23.13;10.68;;;;;;;;;;6295092;22;20287;-45
2022/05/07 07:11:50;;;;;;;17.58;9.77;;;;;;;;;;6298387;22;20094;-46
2022/05/07 07:14:16;;;;;;;16.27;9.80;;;;;;;;;;6266787;22;20023;-47
2022/05/07 07:16:41;;;;;;;16.60;9.90;;;;;;;;;;6269533;22;20078;-45
2022/05/07 07:19:07;;;;;;;17.25;9.98;;;;;;;;;;6296714;22;20498;-45
2022/05/07 07:21:32;;;;;;;22.33;10.52;;;;;;;;;;6263617;22;20007;-47
2022/05/07 07:23:59;;;;;;;13.88;9.35;;;;;;;;;;6296896;22;20015;-43
2022/05/07 07:26:24;;;;;;;14.20;8.27;;;;;;;;;;6259063;22;20043;-44
2022/05/07 07:28:50;;;;;;;13.82;7.90;;;;;;;;;;6292573;22;20404;-48
2022/05/07 07:31:16;;;;;;;14.32;8.05;;;;;;;;;;6293005;22;20015;-47
2022/05/07 07:33:41;;;;;;;12.75;6.97;;;;;;;;;;6292456;22;20023;-47
2022/05/07 07:36:08;;;;;;;12.52;7.75;;;;;;;;;;6291382;22;20165;-44
2022/05/07 07:38:34;;;;;;;13.05;7.05;;;;;;;;;;6288928;22;20022;-45
2022/05/07 07:41:00;;;;;;;17.25;8.18;;;;;;;;;;6267419;22;20019;-43
2022/05/07 07:43:25;;;;;;;16.75;7.30;;;;;;;;;;6290917;22;20337;-46
2022/05/07 07:48:34;;;;;;;12.57;6.18;;;;;;;;;;6290838;22;20974;-45
2022/05/07 07:50:59;;;;;;;11.55;6.97;;;;;;;;;;6288514;22;20011;-47
2022/05/07 07:53:25;;;;;;;9.50;6.47;;;;;;;;;;6292346;22;20089;-45
2022/05/07 07:55:50;;;;;;;13.88;6.80;;;;;;;;;;6289840;22;20039;-46
2022/05/07 07:58:16;;;;;;;12.15;6.93;;;;;;;;;;6294567;22;20030;-45
2022/05/07 08:00:44;;;;;;;16.00;7.45;;;;;;;;;;6295565;22;20216;-47
2022/05/07 08:03:13;;;;;;;13.75;7.43;;;;;;;;;;6296480;22;20291;-50
2022/05/07 08:05:39;;;;;;;13.63;7.47;;;;;;;;;;6295009;22;20003;-45
2022/05/07 08:13:33;;;;;;;18.88;7.65;;;;;;;;;;6294038;22;20025;-45
2022/05/07 08:15:59;;;;;;;15.43;5.93;;;;;;;;;;6297033;22;20058;-47
2022/05/07 08:18:25;;;;;;;11.48;6.57;;;;;;;;;;6293690;22;20031;-45
2022/05/07 08:20:50;;;;;;;10.55;6.10;;;;;;;;;;6295568;22;20330;-46
2022/05/07 08:23:15;;;;;;;10.75;5.78;;;;;;;;;;6294567;22;20004;-46
2022/05/07 08:25:40;;;;;;;15.95;7.32;;;;;;;;;;6296278;22;20016;-47
2022/05/07 08:28:06;;;;;;;16.52;6.90;;;;;;;;;;6295803;22;20092;-45
2022/05/07 08:30:31;;;;;;;12.68;6.38;;;;;;;;;;6293477;22;20022;-46
2022/05/07 08:32:57;;;;;;;14.65;6.15;;;;;;;;;;6296198;22;20065;-44
2022/05/07 08:35:22;;;;;;;17.55;6.35;;;;;;;;;;6291751;22;20019;-45
2022/05/07 08:37:47;;;;;;;12.05;6.47;;;;;;;;;;6268179;22;20012;-46
2022/05/07 08:40:16;;;;;;;11.60;6.63;;;;;;;;;;6292701;22;20046;-45
2022/05/07 08:42:41;;;;;;;9.75;5.95;;;;;;;;;;6295545;22;20016;-47
2022/05/07 08:45:07;;;;;;;11.63;6.10;;;;;;;;;;6294762;22;20023;-45
2022/05/07 08:47:32;;;;;;;14.00;6.85;;;;;;;;;;6295522;22;20510;-46
2022/05/07 08:49:58;;;;;;;17.15;7.45;;;;;;;;;;6295160;22;20020;-47
2022/05/07 08:52:24;;;;;;;13.88;6.40;;;;;;;;;;6295152;22;20027;-45
2022/05/07 08:54:49;;;;;;;8.88;5.68;;;;;;;;;;6294401;22;20011;-44
2022/05/07 08:57:15;;;;;;;8.77;5.28;;;;;;;;;;6294789;22;20086;-43
2022/05/07 08:59:41;;;;;;;15.20;5.38;;;;;;;;;;6294235;22;20016;-45
2022/05/07 09:02:08;;;;;;;12.40;6.40;;;;;;;;;;6295980;22;20051;-47
2022/05/07 09:04:36;;;;;;;11.05;5.95;;;;;;;;;;6265551;22;20004;-45
2022/05/07 09:07:03;;;;;;;9.23;5.57;;;;;;;;;;6295933;22;20094;-45
2022/05/07 09:09:31;;;;;;;15.40;5.47;;;;;;;;;;6293136;22;20019;-46
2022/05/07 09:11:57;;;;;;;11.32;4.55;;;;;;;;;;6297501;22;20331;-45
2022/05/07 09:14:28;;;;;;;6.72;4.32;;;;;;;;;;6293433;22;20367;-43
2022/05/07 09:16:53;;;;;;;9.15;3.92;;;;;;;;;;6296125;22;20068;-47
2022/05/07 09:19:20;;;;;;;10.32;4.25;;;;;;;;;;6293016;22;20015;-46
2022/05/07 09:21:47;;;;;;;8.98;4.22;;;;;;;;;;6295903;22;20019;-48
2022/05/07 09:24:12;;;;;;;9.32;3.63;;;;;;;;;;6293483;22;20019;-45
2022/05/07 09:26:40;;;;;;;8.60;4.05;;;;;;;;;;6295818;22;20049;-46
2022/05/07 09:29:09;;;;;;;7.22;4.10;;;;;;;;;;6294298;22;20004;-44
2022/05/07 09:31:35;;;;;;;7.53;3.85;;;;;;;;;;6296154;22;20018;-48
2022/05/07 09:36:53;;;;;;;8.30;3.42;;;;;;;;;;6294390;22;20929;-46
2022/05/07 09:39:18;;;;;;;7.60;3.80;;;;;;;;;;6288572;22;20023;-45
2022/05/07 09:41:44;;;;;;;8.57;3.50;;;;;;;;;;6292337;22;20020;-45
2022/05/07 09:44:12;;;;;;;9.82;3.67;;;;;;;;;;6296327;22;20011;-45
2022/05/07 09:46:38;;;;;;;11.90;4.15;;;;;;;;;;6295351;22;20016;-48
2022/05/07 09:49:04;;;;;;;11.48;3.65;;;;;;;;;;6297428;22;20073;-44
2022/05/07 09:51:30;;;;;;;6.25;2.85;;;;;;;;;;6294410;22;20021;-46
2022/05/07 09:59:23;;;;;;;6.07;2.55;;;;;;;;;;6295028;22;20423;-45
2022/05/07 10:01:48;;;;;;;7.50;2.90;;;;;;;;;;6298473;22;20441;-45
2022/05/07 10:04:13;;;;;;;5.35;2.20;;;;;;;;;;6295516;22;20010;-45
2022/05/07 10:06:45;;;;;;;7.93;2.53;;;;;;;;;;6297500;22;20019;-44
2022/05/07 10:09:29;;;;;;;5.65;2.63;;;;;;;;;;6267883;22;20228;-45
2022/05/07 10:11:55;;;;;;;5.63;2.10;;;;;;;;;;6298181;22;20011;-47
2022/05/07 10:14:27;;;;;;;5.05;2.58;;;;;;;;;;6294979;22;20023;-46
2022/05/07 10:17:19;;;;;;;16.38;2.58;;;;;;;;;;6297634;22;20290;-47
2022/05/07 10:19:45;;;;;;;6.25;2.15;;;;;;;;;;6289540;22;20008;-46
2022/05/07 10:22:17;;;;;;;5.30;2.30;;;;;;;;;;6295437;22;20054;-44
2022/05/07 10:24:43;;;;;;;3.83;2.08;;;;;;;;;;6298463;22;20039;-43
2022/05/07 10:27:21;;;;;;;7.38;2.10;;;;;;;;;;6266329;22;20449;-49
2022/05/07 10:29:47;;;;;;;5.25;2.20;;;;;;;;;;6296628;22;20038;-46
2022/05/07 10:32:18;;;;;;;8.30;2.70;;;;;;;;;;6293908;22;20012;-46
2022/05/07 10:34:52;;;;;;;7.93;2.92;;;;;;;;;;6296486;22;20019;-44
2022/05/07 10:37:18;;;;;;;6.05;2.72;;;;;;;;;;6294176;22;20007;-45
2022/05/07 10:39:51;;;;;;;4.60;3.08;;;;;;;;;;6297386;22;20015;-44
2022/05/07 10:42:17;;;;;;;12.55;2.60;;;;;;;;;;6295810;22;20015;-44
2022/05/07 10:44:43;;;;;;;5.55;2.88;;;;;;;;;;6296145;22;20529;-48
2022/05/07 10:47:12;;;;;;;5.40;3.53;;;;;;;;;;6297371;22;20016;-44
2022/05/07 10:49:54;;;;;;;3.50;2.47;;;;;;;;;;6294196;22;20036;-46
2022/05/07 10:52:27;;;;;;;6.63;3.10;;;;;;;;;;6295725;22;20377;-44
2022/05/07 10:55:02;;;;;;;7.50;2.90;;;;;;;;;;6294713;22;20015;-45
2022/05/07 10:57:36;;;;;;;8.85;2.90;;;;;;;;;;6295358;22;20030;-45
2022/05/07 11:00:02;;;;;;;3.78;2.20;;;;;;;;;;6296315;22;20088;-44
2022/05/07 11:02:30;;;;;;;7.50;2.58;;;;;;;;;;6268010;22;20195;-44
2022/05/07 11:04:56;;;;;;;6.43;2.85;;;;;;;;;;6297233;22;20014;-44
2022/05/07 11:07:22;;;;;;;6.78;3.50;;;;;;;;;;6294309;22;20378;-48
2022/05/07 11:09:51;;;;;;;5.15;1.80;;;;;;;;;;6295742;22;20547;-45
2022/05/07 11:12:17;;;;;;;3.92;2.80;;;;;;;;;;6292789;22;20620;-45
2022/05/07 11:14:43;;;;;;;6.97;2.42;;;;;;;;;;6296837;22;20018;-45
2022/05/07 11:17:08;;;;;;;3.88;2.67;;;;;;;;;;6294482;22;20027;-46
2022/05/07 11:19:34;;;;;;;3.53;2.50;;;;;;;;;;6296224;22;20019;-48
2022/05/07 11:22:01;;;;;;;6.30;2.67;;;;;;;;;;6294921;22;20011;-45
2022/05/07 11:24:33;;;;;;;6.25;2.28;;;;;;;;;;6294902;22;20522;-48
2022/05/07 11:27:03;;;;;;;4.10;2.25;;;;;;;;;;6267040;22;20011;-46
2022/05/07 11:29:29;;;;;;;4.53;2.20;;;;;;;;;;6295785;22;20045;-47
2022/05/07 11:31:55;;;;;;;2.53;1.33;;;;;;;;;;6295772;22;20019;-46
2022/05/07 11:34:27;;;;;;;2.83;1.77;;;;;;;;;;6295240;22;20454;-46
2022/05/07 11:36:52;;;;;;;3.70;1.80;;;;;;;;;;6295217;22;20026;-44
2022/05/07 11:39:19;;;;;;;4.38;2.10;;;;;;;;;;6295690;22;20015;-46
2022/05/07 11:41:52;;;;;;;4.63;1.50;;;;;;;;;;6295026;22;20011;-45
2022/05/07 11:47:23;;;;;;;4.32;1.88;;;;;;;;;;6296120;22;20046;-46
2022/05/07 11:50:02;;;;;;;8.70;2.20;;;;;;;;;;6295378;22;20026;-48
2022/05/07 11:52:27;;;;;;;;;;;;;;;;;;6268436;22;20023;-44
2022/05/07 11:54:53;;;;;;;6.55;2.50;;;;;;;;;;6294275;22;20348;-48
2022/05/07 11:57:28;;;;;;;4.90;1.90;;;;;;;;;;6296187;22;20271;-44
2022/05/07 11:59:53;;;;;;;5.60;1.45;;;;;;;;;;6296212;22;20011;-47
2022/05/07 12:02:19;;;;;;;1.98;1.58;;;;;;;;;;6267455;22;20101;-45
2022/05/07 12:04:44;;;;;;;4.07;1.20;;;;;;;;;;6294774;22;20022;-45
2022/05/07 12:07:10;;;;;;;2.75;2.25;;;;;;;;;;6295552;22;20094;-45
2022/05/07 12:09:35;;;;;;;4.25;1.58;;;;;;;;;;6295672;22;20007;-46
2022/05/07 12:12:01;;;;;;;2.00;1.65;;;;;;;;;;6296293;22;20018;-45
2022/05/07 12:14:26;;;;;;;6.72;1.63;;;;;;;;;;6293524;22;20578;-48
2022/05/07 12:19:35;;;;;;;4.18;1.83;;;;;;;;;;6295731;22;20092;-45
2022/05/07 12:30:12;;;;;;;3.78;2.03;;;;;;;;;;6293309;22;20042;-47
2022/05/07 12:32:38;;;;;;;7.15;1.92;;;;;;;;;;6295720;22;20019;-46
2022/05/07 12:35:04;;;;;;;6.90;1.80;;;;;;;;;;6293894;22;20019;-44
2022/05/07 12:37:29;;;;;;;4.38;1.90;;;;;;;;;;6295266;22;20525;-46
2022/05/07 12:39:54;;;;;;;7.32;2.17;;;;;;;;;;6294034;22;20369;-47
2022/05/07 12:42:20;;;;;;;4.28;1.33;;;;;;;;;;6295220;22;20050;-47
2022/05/07 12:44:45;;;;;;;2.80;1.67;;;;;;;;;;6294845;22;20019;-45
2022/05/07 12:47:11;;;;;;;3.28;1.52;;;;;;;;;;6295571;22;20066;-45
2022/05/07 13:21:17;;;;;;;4.50;1.50;;;;;;;;;;6239748;22;20031;-46
2022/05/07 13:23:42;;;;;;;3.60;1.20;;;;;;;;;;6233413;22;20024;-47
2022/05/07 13:26:07;;;;;;;2.83;1.55;;;;;;;;;;6234991;22;20049;-48
2022/05/07 13:28:33;;;;;;;2.72;1.40;;;;;;;;;;6233022;22;20004;-47
2022/05/07 13:30:59;;;;;;;4.40;1.60;;;;;;;;;;6236955;22;20028;-46
2022/05/07 13:33:25;;;;;;;2.03;1.20;;;;;;;;;;6232054;22;20036;-46
2022/05/07 13:35:51;;;;;;;2.83;1.77;;;;;;;;;;6237121;22;20356;-45
2022/05/07 13:38:16;;;;;;;3.25;1.60;;;;;;;;;;6233870;22;20012;-45
2022/05/07 13:40:41;;;;;;;2.00;1.30;;;;;;;;;;6237008;22;20090;-44
2022/05/07 13:43:07;;;;;;;2.53;0.98;;;;;;;;;;6234840;22;20019;-47
2022/05/07 13:45:32;;;;;;;3.45;1.58;;;;;;;;;;6235846;22;20044;-50
2022/05/07 13:47:57;;;;;;;3.28;1.52;;;;;;;;;;6234876;22;20027;-46
2022/05/07 13:50:23;;;;;;;7.15;1.95;;;;;;;;;;6234765;22;20024;-47
2022/05/07 13:52:48;;;;;;;3.72;1.65;;;;;;;;;;6234237;22;20031;-46
2022/05/07 13:55:13;;;;;;;1.73;1.10;;;;;;;;;;6234160;22;20016;-45
2022/05/07 13:57:39;;;;;;;3.08;1.50;;;;;;;;;;6234820;22;20387;-46
2022/05/07 14:00:05;;;;;;;3.05;1.25;;;;;;;;;;6236750;22;20691;-46
2022/05/07 14:02:36;;;;;;;5.18;2.40;;;;;;;;;;6234617;22;20008;-47
2022/05/07 14:05:01;;;;;;;6.80;1.83;;;;;;;;;;6236727;22;20484;-46
2022/05/07 14:07:28;;;;;;;2.42;1.38;;;;;;;;;;6234513;22;20020;-48
2022/05/07 14:09:53;;;;;;;3.55;1.33;;;;;;;;;;6236200;22;20012;-48
2022/05/07 14:12:20;;;;;;;3.55;1.50;;;;;;;;;;6234291;22;20016;-46
2022/05/07 14:14:46;;;;;;;2.45;1.42;;;;;;;;;;6235284;22;20024;-48
2022/05/07 14:17:11;;;;;;;5.35;1.20;;;;;;;;;;6234959;22;20016;-47
2022/05/07 14:19:37;;;;;;;4.53;1.40;;;;;;;;;;6242096;22;20012;-46
2022/05/07 14:22:02;;;;;;;1.67;1.10;;;;;;;;;;6298273;22;20023;-48
2022/05/07 14:24:29;;;;;;;2.72;1.15;;;;;;;;;;6267774;22;20357;-46
2022/05/07 14:26:54;;;;;;;1.70;1.25;;;;;;;;;;6296794;22;20037;-48
2022/05/07 14:29:19;;;;;;;3.33;1.30;;;;;;;;;;6295210;22;20377;-48
2022/05/07 14:31:45;;;;;;;2.72;1.30;;;;;;;;;;6297969;22;20011;-44
2022/05/07 14:34:10;;;;;;;2.53;2.03;;;;;;;;;;6298174;22;20034;-46
2022/05/07 14:36:36;;;;;;;3.00;1.33;;;;;;;;;;6268569;22;20110;-48
2022/05/07 14:39:01;;;;;;;3.45;1.30;;;;;;;;;;6295926;22;20011;-47
2022/05/07 14:41:27;;;;;;;2.72;1.15;;;;;;;;;;6295464;22;20030;-46
2022/05/07 14:43:52;;;;;;;6.05;1.67;;;;;;;;;;6297710;22;20257;-45
2022/05/07 14:46:19;;;;;;;3.05;1.33;;;;;;;;;;6292214;22;20022;-46
2022/05/07 14:48:45;;;;;;;3.40;1.30;;;;;;;;;;6296716;22;20020;-45
2022/05/07 14:51:11;;;;;;;3.42;1.38;;;;;;;;;;6294612;22;20061;-48
2022/05/07 14:53:36;;;;;;;3.95;1.27;;;;;;;;;;6297100;22;20102;-45
2022/05/07 14:56:01;;;;;;;3.15;1.50;;;;;;;;;;6296205;22;20011;-47
2022/05/07 14:58:26;;;;;;;2.00;1.10;;;;;;;;;;6295979;22;20015;-45
2022/05/07 15:00:52;;;;;;;1.90;0.82;;;;;;;;;;6295834;22;20004;-46
2022/05/07 15:03:17;;;;;;;2.42;1.10;;;;;;;;;;6295044;22;20441;-48
2022/05/07 15:05:42;;;;;;;3.45;1.10;;;;;;;;;;6297199;22;20082;-49
2022/05/07 15:10:51;;;;;;;2.15;1.30;;;;;;;;;;6294857;22;20088;-45
2022/05/07 15:13:17;;;;;;;4.25;1.38;;;;;;;;;;6296339;22;20019;-45
2022/05/07 15:15:43;;;;;;;4.18;1.38;;;;;;;;;;6295099;22;20066;-45
2022/05/07 15:18:08;;;;;;;4.10;1.13;;;;;;;;;;6297183;22;20015;-46
2022/05/07 15:20:33;;;;;;;2.30;1.42;;;;;;;;;;6292450;22;20053;-53
2022/05/07 15:22:59;;;;;;;4.38;1.42;;;;;;;;;;6296048;22;20042;-45
2022/05/07 15:25:24;;;;;;;6.05;1.52;;;;;;;;;;6293121;22;20049;-46
2022/05/07 15:27:49;;;;;;;11.18;1.83;;;;;;;;;;6294982;22;20023;-47
2022/05/07 15:30:16;;;;;;;1.90;1.33;;;;;;;;;;6292117;22;20011;-44
2022/05/07 15:38:09;;;;;;;2.63;1.25;;;;;;;;;;6278171;22;20288;-44
2022/05/07 15:40:34;;;;;;;6.13;1.40;;;;;;;;;;6292240;22;20229;-46
2022/05/07 15:42:59;;;;;;;3.07;1.90;;;;;;;;;;6296032;22;20065;-46
2022/05/07 15:45:25;;;;;;;2.88;1.17;;;;;;;;;;6293186;22;20267;-46